sensor_id;sensor_type;location;lat;lon;timestamp;pressure;altitude;pressure_sealevel;temperature;humidity
28428;BME280;15662;49.128;8.520;2022-07-15T00:00:17;100736.47;;;25.17;34.58
28428;BME280;15662;49.128;8.520;2022-07-15T00:02:45;100738.31;;;25.16;34.79
28428;BME280;15662;49.128;8.520;2022-07-15T00:05:13;100738.69;;;25.12;34.92
28428;BME280;15662;49.128;8.520;2022-07-15T00:07:42;100727.59;;;25.04;34.72
28428;BME280;15662;49.128;8.520;2022-07-15T00:10:10;100736.72;;;25.03;35.04
28428;BME280;15662;49.128;8.520;2022-07-15T00:12:52;100731.75;;;24.96;34.85
28428;BME280;15662;49.128;8.520;2022-07-15T00:15:27;100734.84;;;24.92;35.09
28428;BME280;15662;49.128;8.520;2022-07-15T00:17:55;100738.31;;;24.83;35.47
28428;BME280;15662;49.128;8.520;2022-07-15T00:20:25;100742.47;;;24.76;35.67
28428;BME280;15662;49.128;8.520;2022-07-15T00:22:54;100735.06;;;24.66;35.74
28428;BME280;15662;49.128;8.520;2022-07-15T00:25:21;100739.34;;;24.58;35.44
28428;BME280;15662;49.128;8.520;2022-07-15T00:27:57;100722.47;;;24.43;35.25
28428;BME280;15662;49.128;8.520;2022-07-15T00:30:38;100737.13;;;24.40;35.91
28428;BME280;15662;49.128;8.520;2022-07-15T00:33:08;100727.31;;;24.27;35.66
28428;BME280;15662;49.128;8.520;2022-07-15T00:35:38;100728.78;;;24.19;35.99
28428;BME280;15662;49.128;8.520;2022-07-15T00:38:10;100723.81;;;24.13;36.25
28428;BME280;15662;49.128;8.520;2022-07-15T00:40:48;100734.78;;;24.12;36.34
28428;BME280;15662;49.128;8.520;2022-07-15T00:43:18;100737.19;;;24.04;36.60
28428;BME280;15662;49.128;8.520;2022-07-15T00:45:47;100738.44;;;24.00;36.98
28428;BME280;15662;49.128;8.520;2022-07-15T00:48:15;100738.88;;;23.93;36.95
28428;BME280;15662;49.128;8.520;2022-07-15T00:50:47;100731.88;;;23.91;37.13
28428;BME280;15662;49.128;8.520;2022-07-15T00:53:19;100726.66;;;23.88;36.89
28428;BME280;15662;49.128;8.520;2022-07-15T00:55:49;100729.84;;;23.82;37.12
28428;BME280;15662;49.128;8.520;2022-07-15T00:58:23;100730.19;;;23.77;37.42
28428;BME280;15662;49.128;8.520;2022-07-15T01:00:52;100713.16;;;23.64;37.48
28428;BME280;15662;49.128;8.520;2022-07-15T01:03:31;100715.84;;;23.64;37.81
28428;BME280;15662;49.128;8.520;2022-07-15T01:06:00;100718.97;;;23.58;37.87
28428;BME280;15662;49.128;8.520;2022-07-15T01:08:28;100722.16;;;23.52;38.08
28428;BME280;15662;49.128;8.520;2022-07-15T01:10:57;100724.88;;;23.52;38.37
28428;BME280;15662;49.128;8.520;2022-07-15T01:13:25;100722.28;;;23.50;38.43
28428;BME280;15662;49.128;8.520;2022-07-15T01:15:53;100724.22;;;23.48;38.62
28428;BME280;15662;49.128;8.520;2022-07-15T01:18:23;100723.88;;;23.53;38.75
28428;BME280;15662;49.128;8.520;2022-07-15T01:20:51;100714.69;;;23.55;39.16
28428;BME280;15662;49.128;8.520;2022-07-15T01:23:19;100723.00;;;23.52;39.27
28428;BME280;15662;49.128;8.520;2022-07-15T01:26:01;100718.16;;;23.21;38.75
28428;BME280;15662;49.128;8.520;2022-07-15T01:28:28;100719.19;;;23.31;39.39
28428;BME280;15662;49.128;8.520;2022-07-15T01:30:57;100717.13;;;23.34;39.54
28428;BME280;15662;49.128;8.520;2022-07-15T01:33:28;100728.13;;;23.07;39.21
28428;BME280;15662;49.128;8.520;2022-07-15T01:35:59;100719.88;;;23.22;39.64
28428;BME280;15662;49.128;8.520;2022-07-15T01:38:29;100718.16;;;23.21;39.68
28428;BME280;15662;49.128;8.520;2022-07-15T01:41:03;100721.38;;;23.26;39.80
28428;BME280;15662;49.128;8.520;2022-07-15T01:43:31;100712.75;;;23.21;40.08
28428;BME280;15662;49.128;8.520;2022-07-15T01:45:59;100717.91;;;23.24;40.20
28428;BME280;15662;49.128;8.520;2022-07-15T01:48:33;100712.63;;;23.22;40.00
28428;BME280;15662;49.128;8.520;2022-07-15T01:51:40;100720.53;;;23.12;40.23
28428;BME280;15662;49.128;8.520;2022-07-15T01:54:08;100708.13;;;22.97;40.42
28428;BME280;15662;49.128;8.520;2022-07-15T01:56:36;100721.00;;;22.94;40.38
28428;BME280;15662;49.128;8.520;2022-07-15T01:59:05;100726.03;;;22.85;40.67
28428;BME280;15662;49.128;8.520;2022-07-15T02:01:34;100725.31;;;22.83;40.70
28428;BME280;15662;49.128;8.520;2022-07-15T02:04:11;100725.31;;;22.83;40.95
28428;BME280;15662;49.128;8.520;2022-07-15T02:06:41;100716.44;;;22.81;40.71
28428;BME280;15662;49.128;8.520;2022-07-15T02:09:10;100725.31;;;22.83;40.72
28428;BME280;15662;49.128;8.520;2022-07-15T02:11:42;100726.59;;;22.78;40.95
28428;BME280;15662;49.128;8.520;2022-07-15T02:14:11;100718.59;;;22.63;40.91
28428;BME280;15662;49.128;8.520;2022-07-15T02:16:40;100734.47;;;22.55;41.08
28428;BME280;15662;49.128;8.520;2022-07-15T02:19:13;100722.91;;;22.40;41.05
28428;BME280;15662;49.128;8.520;2022-07-15T02:21:41;100719.78;;;22.34;41.06
28428;BME280;15662;49.128;8.520;2022-07-15T02:24:08;100722.69;;;22.31;41.27
28428;BME280;15662;49.128;8.520;2022-07-15T02:26:37;100720.53;;;22.23;41.36
28428;BME280;15662;49.128;8.520;2022-07-15T02:29:04;100734.03;;;22.23;41.29
28428;BME280;15662;49.128;8.520;2022-07-15T02:31:33;100736.06;;;22.20;41.47
28428;BME280;15662;49.128;8.520;2022-07-15T02:34:04;100729.25;;;22.14;41.51
28428;BME280;15662;49.128;8.520;2022-07-15T02:36:32;100730.22;;;22.13;41.53
28428;BME280;15662;49.128;8.520;2022-07-15T02:39:02;100721.53;;;22.08;41.46
28428;BME280;15662;49.128;8.520;2022-07-15T02:41:31;100729.09;;;22.03;41.70
28428;BME280;15662;49.128;8.520;2022-07-15T02:44:04;100724.00;;;21.98;41.66
28428;BME280;15662;49.128;8.520;2022-07-15T02:46:35;100721.63;;;21.94;41.72
28428;BME280;15662;49.128;8.520;2022-07-15T02:49:04;100735.00;;;21.95;41.62
28428;BME280;15662;49.128;8.520;2022-07-15T02:51:33;100731.31;;;21.96;41.69
28428;BME280;15662;49.128;8.520;2022-07-15T02:54:01;100734.81;;;21.98;41.76
28428;BME280;15662;49.128;8.520;2022-07-15T02:56:32;100739.53;;;21.95;41.71
28428;BME280;15662;49.128;8.520;2022-07-15T02:59:00;100725.38;;;21.91;41.79
28428;BME280;15662;49.128;8.520;2022-07-15T03:01:29;100738.13;;;21.89;41.81
28428;BME280;15662;49.128;8.520;2022-07-15T03:04:00;100733.03;;;21.84;41.99
28428;BME280;15662;49.128;8.520;2022-07-15T03:06:28;100738.72;;;21.80;42.04
28428;BME280;15662;49.128;8.520;2022-07-15T03:08:56;100739.56;;;21.68;42.01
28428;BME280;15662;49.128;8.520;2022-07-15T03:11:25;100742.56;;;21.63;42.16
28428;BME280;15662;49.128;8.520;2022-07-15T03:13:52;100744.38;;;21.62;42.30
28428;BME280;15662;49.128;8.520;2022-07-15T03:16:21;100750.66;;;21.63;42.41
28428;BME280;15662;49.128;8.520;2022-07-15T03:18:52;100752.66;;;21.59;42.43
28428;BME280;15662;49.128;8.520;2022-07-15T03:21:20;100756.41;;;21.57;42.37
28428;BME280;15662;49.128;8.520;2022-07-15T03:23:50;100747.75;;;21.52;42.72
28428;BME280;15662;49.128;8.520;2022-07-15T03:26:18;100744.22;;;21.51;42.62
28428;BME280;15662;49.128;8.520;2022-07-15T03:28:46;100760.50;;;21.50;42.46
28428;BME280;15662;49.128;8.520;2022-07-15T03:31:15;100750.97;;;21.44;42.64
28428;BME280;15662;49.128;8.520;2022-07-15T03:33:44;100762.25;;;21.36;42.96
28428;BME280;15662;49.128;8.520;2022-07-15T03:36:22;100766.22;;;21.31;43.02
28428;BME280;15662;49.128;8.520;2022-07-15T03:38:52;100767.06;;;21.31;43.04
28428;BME280;15662;49.128;8.520;2022-07-15T03:41:21;100756.97;;;21.35;43.10
28428;BME280;15662;49.128;8.520;2022-07-15T03:43:49;100763.97;;;21.37;43.46
28428;BME280;15662;49.128;8.520;2022-07-15T03:46:18;100758.28;;;21.42;43.17
28428;BME280;15662;49.128;8.520;2022-07-15T03:48:53;100760.53;;;21.35;43.49
28428;BME280;15662;49.128;8.520;2022-07-15T03:51:22;100763.91;;;21.39;43.57
28428;BME280;15662;49.128;8.520;2022-07-15T03:53:52;100763.09;;;21.37;43.83
28428;BME280;15662;49.128;8.520;2022-07-15T03:56:20;100756.66;;;21.40;43.91
28428;BME280;15662;49.128;8.520;2022-07-15T03:58:48;100759.56;;;21.36;44.12
28428;BME280;15662;49.128;8.520;2022-07-15T04:01:17;100754.16;;;21.36;43.84
28428;BME280;15662;49.128;8.520;2022-07-15T04:03:47;100773.31;;;21.46;43.82
28428;BME280;15662;49.128;8.520;2022-07-15T04:06:17;100773.88;;;21.51;43.71
28428;BME280;15662;49.128;8.520;2022-07-15T04:08:47;100780.81;;;21.55;43.73
28428;BME280;15662;49.128;8.520;2022-07-15T04:11:15;100789.56;;;21.59;43.79
28428;BME280;15662;49.128;8.520;2022-07-15T04:13:44;100785.22;;;21.56;43.56
28428;BME280;15662;49.128;8.520;2022-07-15T04:16:12;100797.75;;;21.57;43.61
28428;BME280;15662;49.128;8.520;2022-07-15T04:18:40;100788.59;;;21.60;43.55
28428;BME280;15662;49.128;8.520;2022-07-15T04:21:08;100785.91;;;21.60;43.75
28428;BME280;15662;49.128;8.520;2022-07-15T04:23:36;100784.53;;;21.67;43.49
28428;BME280;15662;49.128;8.520;2022-07-15T04:26:08;100776.66;;;21.64;43.46
28428;BME280;15662;49.128;8.520;2022-07-15T04:28:36;100785.31;;;21.69;43.35
28428;BME280;15662;49.128;8.520;2022-07-15T04:31:05;100787.91;;;21.71;43.25
28428;BME280;15662;49.128;8.520;2022-07-15T04:33:43;100789.31;;;21.76;43.32
28428;BME280;15662;49.128;8.520;2022-07-15T04:36:11;100794.53;;;21.79;43.06
28428;BME280;15662;49.128;8.520;2022-07-15T04:38:41;100796.13;;;21.82;42.92
28428;BME280;15662;49.128;8.520;2022-07-15T04:41:09;100788.03;;;21.82;43.00
28428;BME280;15662;49.128;8.520;2022-07-15T04:43:40;100791.41;;;21.85;43.15
28428;BME280;15662;49.128;8.520;2022-07-15T04:46:11;100788.81;;;21.84;43.01
28428;BME280;15662;49.128;8.520;2022-07-15T04:48:39;100797.38;;;21.90;42.96
28428;BME280;15662;49.128;8.520;2022-07-15T04:51:30;100804.50;;;21.92;43.09
28428;BME280;15662;49.128;8.520;2022-07-15T04:53:58;100804.97;;;21.98;42.60
28428;BME280;15662;49.128;8.520;2022-07-15T04:56:35;100807.16;;;22.06;42.87
28428;BME280;15662;49.128;8.520;2022-07-15T04:59:06;100803.41;;;22.08;42.66
28428;BME280;15662;49.128;8.520;2022-07-15T05:01:33;100807.34;;;22.17;42.73
28428;BME280;15662;49.128;8.520;2022-07-15T05:04:02;100812.63;;;22.19;42.63
28428;BME280;15662;49.128;8.520;2022-07-15T05:06:30;100813.09;;;22.25;42.66
28428;BME280;15662;49.128;8.520;2022-07-15T05:08:58;100812.22;;;22.25;42.50
28428;BME280;15662;49.128;8.520;2022-07-15T05:11:29;100810.06;;;22.30;42.42
28428;BME280;15662;49.128;8.520;2022-07-15T05:13:57;100809.66;;;22.36;42.32
28428;BME280;15662;49.128;8.520;2022-07-15T05:16:25;100818.22;;;22.43;42.01
28428;BME280;15662;49.128;8.520;2022-07-15T05:18:53;100824.84;;;22.51;41.68
28428;BME280;15662;49.128;8.520;2022-07-15T05:21:22;100822.56;;;22.58;41.44
28428;BME280;15662;49.128;8.520;2022-07-15T05:23:52;100818.16;;;22.57;41.38
28428;BME280;15662;49.128;8.520;2022-07-15T05:26:41;100820.31;;;22.64;41.25
28428;BME280;15662;49.128;8.520;2022-07-15T05:29:12;100825.03;;;22.48;41.40
28428;BME280;15662;49.128;8.520;2022-07-15T05:31:41;100821.59;;;22.59;41.10
28428;BME280;15662;49.128;8.520;2022-07-15T05:34:11;100829.63;;;22.73;40.69
28428;BME280;15662;49.128;8.520;2022-07-15T05:36:39;100831.03;;;22.79;40.27
28428;BME280;15662;49.128;8.520;2022-07-15T05:39:12;100825.75;;;22.77;40.09
28428;BME280;15662;49.128;8.520;2022-07-15T05:41:41;100835.69;;;22.77;39.95
28428;BME280;15662;49.128;8.520;2022-07-15T05:44:15;100830.91;;;22.80;39.98
28428;BME280;15662;49.128;8.520;2022-07-15T05:46:47;100838.81;;;22.83;39.93
28428;BME280;15662;49.128;8.520;2022-07-15T05:49:16;100830.72;;;22.83;39.95
28428;BME280;15662;49.128;8.520;2022-07-15T05:51:44;100827.69;;;22.88;39.91
28428;BME280;15662;49.128;8.520;2022-07-15T05:54:12;100829.97;;;22.94;39.72
28428;BME280;15662;49.128;8.520;2022-07-15T05:56:41;100837.78;;;22.99;39.77
28428;BME280;15662;49.128;8.520;2022-07-15T05:59:14;100844.81;;;23.01;39.58
28428;BME280;15662;49.128;8.520;2022-07-15T06:01:43;100834.75;;;23.03;39.58
28428;BME280;15662;49.128;8.520;2022-07-15T06:04:11;100830.84;;;23.07;39.58
28428;BME280;15662;49.128;8.520;2022-07-15T06:06:40;100839.41;;;23.14;39.63
28428;BME280;15662;49.128;8.520;2022-07-15T06:09:08;100837.47;;;23.16;39.47
28428;BME280;15662;49.128;8.520;2022-07-15T06:11:38;100830.09;;;23.18;39.68
28428;BME280;15662;49.128;8.520;2022-07-15T06:14:06;100839.28;;;23.28;39.31
28428;BME280;15662;49.128;8.520;2022-07-15T06:16:34;100830.72;;;23.34;39.25
28428;BME280;15662;49.128;8.520;2022-07-15T06:19:02;100840.03;;;23.43;39.20
28428;BME280;15662;49.128;8.520;2022-07-15T06:21:31;100835.78;;;23.52;39.09
28428;BME280;15662;49.128;8.520;2022-07-15T06:23:59;100849.53;;;23.61;39.20
28428;BME280;15662;49.128;8.520;2022-07-15T06:26:27;100852.22;;;23.74;39.03
28428;BME280;15662;49.128;8.520;2022-07-15T06:28:56;100849.28;;;23.90;38.98
28428;BME280;15662;49.128;8.520;2022-07-15T06:31:24;100834.16;;;23.99;38.72
28428;BME280;15662;49.128;8.520;2022-07-15T06:33:52;100851.53;;;24.20;38.58
28428;BME280;15662;49.128;8.520;2022-07-15T06:36:19;100844.31;;;24.32;38.34
28428;BME280;15662;49.128;8.520;2022-07-15T06:38:47;100840.38;;;24.49;38.37
28428;BME280;15662;49.128;8.520;2022-07-15T06:41:17;100842.63;;;24.66;38.01
28428;BME280;15662;49.128;8.520;2022-07-15T06:43:49;100855.84;;;24.82;37.84
28428;BME280;15662;49.128;8.520;2022-07-15T06:46:40;100855.13;;;24.91;37.74
28428;BME280;15662;49.128;8.520;2022-07-15T06:49:08;100850.63;;;25.03;37.33
28428;BME280;15662;49.128;8.520;2022-07-15T06:51:36;100842.66;;;25.12;37.03
28428;BME280;15662;49.128;8.520;2022-07-15T06:54:06;100839.59;;;25.28;36.98
28428;BME280;15662;49.128;8.520;2022-07-15T06:56:38;100838.09;;;25.35;37.13
28428;BME280;15662;49.128;8.520;2022-07-15T06:59:06;100848.94;;;25.46;36.52
28428;BME280;15662;49.128;8.520;2022-07-15T07:01:34;100824.41;;;25.48;36.53
28428;BME280;15662;49.128;8.520;2022-07-15T07:04:03;100835.00;;;25.62;36.17
28428;BME280;15662;49.128;8.520;2022-07-15T07:06:32;100833.50;;;25.69;35.82
28428;BME280;15662;49.128;8.520;2022-07-15T07:09:03;100831.94;;;25.78;35.55
28428;BME280;15662;49.128;8.520;2022-07-15T07:11:32;100819.44;;;25.87;35.50
28428;BME280;15662;49.128;8.520;2022-07-15T07:14:00;100823.50;;;25.92;35.17
28428;BME280;15662;49.128;8.520;2022-07-15T07:16:28;100828.19;;;26.02;34.80
28428;BME280;15662;49.128;8.520;2022-07-15T07:18:57;100824.94;;;26.08;34.95
28428;BME280;15662;49.128;8.520;2022-07-15T07:21:25;100820.84;;;26.13;34.66
28428;BME280;15662;49.128;8.520;2022-07-15T07:23:59;100819.31;;;26.20;34.83
28428;BME280;15662;49.128;8.520;2022-07-15T07:26:28;100822.88;;;26.32;34.52
28428;BME280;15662;49.128;8.520;2022-07-15T07:28:57;100826.94;;;26.38;34.37
28428;BME280;15662;49.128;8.520;2022-07-15T07:31:25;100825.44;;;26.45;34.06
28428;BME280;15662;49.128;8.520;2022-07-15T07:33:58;100817.16;;;26.46;33.76
28428;BME280;15662;49.128;8.520;2022-07-15T07:36:26;100828.69;;;26.60;33.60
28428;BME280;15662;49.128;8.520;2022-07-15T07:38:54;100822.75;;;26.66;33.42
28428;BME280;15662;49.128;8.520;2022-07-15T07:41:23;100824.94;;;26.72;33.01
28428;BME280;15662;49.128;8.520;2022-07-15T07:43:51;100825.16;;;26.80;32.78
28428;BME280;15662;49.128;8.520;2022-07-15T07:46:19;100817.44;;;26.85;32.76
28428;BME280;15662;49.128;8.520;2022-07-15T07:48:47;100815.19;;;26.90;32.54
28428;BME280;15662;49.128;8.520;2022-07-15T07:51:17;100808.44;;;26.94;32.27
28428;BME280;15662;49.128;8.520;2022-07-15T07:53:46;100827.56;;;27.04;32.06
28428;BME280;15662;49.128;8.520;2022-07-15T07:56:14;100811.72;;;27.09;31.75
28428;BME280;15662;49.128;8.520;2022-07-15T07:58:42;100826.13;;;27.21;31.47
28428;BME280;15662;49.128;8.520;2022-07-15T08:01:10;100812.81;;;27.27;31.30
28428;BME280;15662;49.128;8.520;2022-07-15T08:03:38;100812.25;;;27.34;31.08
28428;BME280;15662;49.128;8.520;2022-07-15T08:06:07;100809.88;;;27.40;31.06
28428;BME280;15662;49.128;8.520;2022-07-15T08:08:46;100806.44;;;27.48;30.74
28428;BME280;15662;49.128;8.520;2022-07-15T08:11:38;100816.22;;;27.50;31.06
28428;BME280;15662;49.128;8.520;2022-07-15T08:14:07;100811.94;;;27.58;30.78
28428;BME280;15662;49.128;8.520;2022-07-15T08:16:35;100816.84;;;27.64;30.47
28428;BME280;15662;49.128;8.520;2022-07-15T08:19:03;100818.41;;;27.66;30.48
28428;BME280;15662;49.128;8.520;2022-07-15T08:21:31;100804.94;;;27.65;30.21
28428;BME280;15662;49.128;8.520;2022-07-15T08:23:59;100817.63;;;27.75;29.95
28428;BME280;15662;49.128;8.520;2022-07-15T08:26:27;100823.66;;;27.79;29.81
28428;BME280;15662;49.128;8.520;2022-07-15T08:28:55;100819.63;;;27.83;29.83
28428;BME280;15662;49.128;8.520;2022-07-15T08:31:34;100811.91;;;27.88;29.57
28428;BME280;15662;49.128;8.520;2022-07-15T08:34:04;100818.66;;;27.94;29.54
28428;BME280;15662;49.128;8.520;2022-07-15T08:36:32;100815.94;;;27.94;29.35
28428;BME280;15662;49.128;8.520;2022-07-15T08:39:01;100823.69;;;27.98;29.16
28428;BME280;15662;49.128;8.520;2022-07-15T08:41:33;100817.25;;;27.99;29.28
28428;BME280;15662;49.128;8.520;2022-07-15T08:44:02;100816.22;;;28.00;29.22
28428;BME280;15662;49.128;8.520;2022-07-15T08:46:33;100817.38;;;28.08;29.20
28428;BME280;15662;49.128;8.520;2022-07-15T08:49:12;100817.97;;;28.11;29.33
28428;BME280;15662;49.128;8.520;2022-07-15T08:51:51;100820.09;;;28.17;29.19
28428;BME280;15662;49.128;8.520;2022-07-15T08:54:28;100816.41;;;28.18;29.33
28428;BME280;15662;49.128;8.520;2022-07-15T08:56:56;100815.38;;;28.19;29.10
28428;BME280;15662;49.128;8.520;2022-07-15T08:59:25;100823.00;;;28.25;28.94
28428;BME280;15662;49.128;8.520;2022-07-15T09:01:53;100826.88;;;28.33;28.75
28428;BME280;15662;49.128;8.520;2022-07-15T09:04:22;100825.91;;;28.34;28.72
28428;BME280;15662;49.128;8.520;2022-07-15T09:06:50;100822.75;;;28.38;28.74
28428;BME280;15662;49.128;8.520;2022-07-15T09:09:32;100832.06;;;28.45;28.84
28428;BME280;15662;49.128;8.520;2022-07-15T09:12:09;100800.63;;;28.41;28.52
28428;BME280;15662;49.128;8.520;2022-07-15T09:14:44;100823.88;;;28.45;28.89
28428;BME280;15662;49.128;8.520;2022-07-15T09:20:00;100814.84;;;28.54;28.25
28428;BME280;15662;49.128;8.520;2022-07-15T09:22:32;100828.63;;;28.53;28.26
28428;BME280;15662;49.128;8.520;2022-07-15T09:25:07;100825.47;;;28.58;27.93
28428;BME280;15662;49.128;8.520;2022-07-15T09:27:41;100822.59;;;28.59;27.94
28428;BME280;15662;49.128;8.520;2022-07-15T09:30:25;100823.00;;;28.64;28.06
28428;BME280;15662;49.128;8.520;2022-07-15T09:33:17;100808.81;;;28.61;28.14
28428;BME280;15662;49.128;8.520;2022-07-15T09:38:59;100819.69;;;28.70;27.82
28428;BME280;15662;49.128;8.520;2022-07-15T09:41:42;100820.44;;;28.72;27.89
28428;BME280;15662;49.128;8.520;2022-07-15T09:46:57;100822.84;;;28.75;27.63
28428;BME280;15662;49.128;8.520;2022-07-15T09:54:28;100823.69;;;28.76;27.71
28428;BME280;15662;49.128;8.520;2022-07-15T09:57:02;100823.59;;;28.77;27.53
28428;BME280;15662;49.128;8.520;2022-07-15T09:59:33;100823.59;;;28.77;27.59
28428;BME280;15662;49.128;8.520;2022-07-15T10:02:09;100824.53;;;28.86;27.44
28428;BME280;15662;49.128;8.520;2022-07-15T10:04:38;100819.41;;;28.83;27.34
28428;BME280;15662;49.128;8.520;2022-07-15T10:07:07;100825.13;;;28.90;27.39
28428;BME280;15662;49.128;8.520;2022-07-15T10:09:56;100812.50;;;28.89;27.75
28428;BME280;15662;49.128;8.520;2022-07-15T10:21:44;100811.06;;;28.94;28.07
28428;BME280;15662;49.128;8.520;2022-07-15T10:31:23;100808.31;;;29.04;27.79
28428;BME280;15662;49.128;8.520;2022-07-15T10:39:20;100805.56;;;29.14;27.36
28428;BME280;15662;49.128;8.520;2022-07-15T10:42:03;100800.09;;;29.14;27.35
28428;BME280;15662;49.128;8.520;2022-07-15T10:44:37;100799.81;;;29.17;27.29
28428;BME280;15662;49.128;8.520;2022-07-15T10:49:45;100788.84;;;29.26;27.24
28428;BME280;15662;49.128;8.520;2022-07-15T10:52:31;100786.81;;;29.28;26.73
28428;BME280;15662;49.128;8.520;2022-07-15T10:55:20;100784.69;;;29.22;27.06
28428;BME280;15662;49.128;8.520;2022-07-15T11:00:26;100785.69;;;29.31;26.87
28428;BME280;15662;49.128;8.520;2022-07-15T11:03:09;100788.69;;;29.28;26.69
28428;BME280;15662;49.128;8.520;2022-07-15T11:13:47;100771.13;;;29.30;26.51
28428;BME280;15662;49.128;8.520;2022-07-15T11:16:19;100781.59;;;29.35;26.26
28428;BME280;15662;49.128;8.520;2022-07-15T11:18:54;100780.28;;;29.39;26.36
28428;BME280;15662;49.128;8.520;2022-07-15T11:21:23;100766.97;;;29.36;25.97
28428;BME280;15662;49.128;8.520;2022-07-15T11:23:52;100771.94;;;29.41;26.31
28428;BME280;15662;49.128;8.520;2022-07-15T11:26:21;100772.38;;;29.46;26.40
28428;BME280;15662;49.128;8.520;2022-07-15T11:28:54;100767.78;;;29.46;26.88
28428;BME280;15662;49.128;8.520;2022-07-15T11:31:23;100766.59;;;29.49;26.65
28428;BME280;15662;49.128;8.520;2022-07-15T11:33:56;100768.44;;;29.58;26.60
28428;BME280;15662;49.128;8.520;2022-07-15T11:36:24;100776.09;;;29.54;26.55
28428;BME280;15662;49.128;8.520;2022-07-15T11:38:52;100779.97;;;29.52;26.27
28428;BME280;15662;49.128;8.520;2022-07-15T11:41:20;100777.53;;;29.49;26.34
28428;BME280;15662;49.128;8.520;2022-07-15T11:44:11;100771.91;;;29.50;26.08
28428;BME280;15662;49.128;8.520;2022-07-15T11:47:00;100765.91;;;29.47;26.29
28428;BME280;15662;49.128;8.520;2022-07-15T11:49:38;100763.41;;;29.53;25.46
28428;BME280;15662;49.128;8.520;2022-07-15T11:52:23;100772.19;;;29.57;26.21
28428;BME280;15662;49.128;8.520;2022-07-15T11:54:52;100765.72;;;29.58;25.97
28428;BME280;15662;49.128;8.520;2022-07-15T11:57:19;100764.13;;;29.55;26.26
28428;BME280;15662;49.128;8.520;2022-07-15T11:59:56;100755.19;;;29.63;25.97
28428;BME280;15662;49.128;8.520;2022-07-15T12:02:27;100747.84;;;29.64;25.58
28428;BME280;15662;49.128;8.520;2022-07-15T12:05:07;100764.81;;;29.67;25.86
28428;BME280;15662;49.128;8.520;2022-07-15T12:07:43;100763.16;;;29.74;25.71
28428;BME280;15662;49.128;8.520;2022-07-15T12:10:12;100758.41;;;29.76;25.87
28428;BME280;15662;49.128;8.520;2022-07-15T12:12:46;100749.75;;;29.81;25.94
28428;BME280;15662;49.128;8.520;2022-07-15T12:15:21;100768.25;;;29.87;25.54
28428;BME280;15662;49.128;8.520;2022-07-15T12:17:49;100756.31;;;29.88;25.50
28428;BME280;15662;49.128;8.520;2022-07-15T12:20:18;100753.81;;;29.95;25.62
28428;BME280;15662;49.128;8.520;2022-07-15T12:23:10;100753.34;;;29.99;25.46
28428;BME280;15662;49.128;8.520;2022-07-15T12:25:38;100758.69;;;30.01;25.54
28428;BME280;15662;49.128;8.520;2022-07-15T12:28:07;100761.06;;;30.04;25.40
28428;BME280;15662;49.128;8.520;2022-07-15T12:30:38;100757.34;;;30.05;25.62
28428;BME280;15662;49.128;8.520;2022-07-15T12:33:19;100749.63;;;30.00;25.11
28428;BME280;15662;49.128;8.520;2022-07-15T12:35:48;100749.91;;;29.97;24.76
28428;BME280;15662;49.128;8.520;2022-07-15T12:38:30;100752.41;;;30.08;24.90
28428;BME280;15662;49.128;8.520;2022-07-15T12:41:20;100747.50;;;30.12;25.42
28428;BME280;15662;49.128;8.520;2022-07-15T12:44:01;100758.16;;;30.15;25.02
28428;BME280;15662;49.128;8.520;2022-07-15T12:47:03;100751.97;;;30.13;24.94
28428;BME280;15662;49.128;8.520;2022-07-15T12:52:34;100741.47;;;30.08;25.08
28428;BME280;15662;49.128;8.520;2022-07-15T12:57:47;100742.97;;;30.03;25.14
28428;BME280;15662;49.128;8.520;2022-07-15T13:00:20;100750.22;;;30.12;24.75
28428;BME280;15662;49.128;8.520;2022-07-15T13:03:06;100743.19;;;30.10;25.00
28428;BME280;15662;49.128;8.520;2022-07-15T13:05:43;100745.91;;;30.10;24.96
28428;BME280;15662;49.128;8.520;2022-07-15T13:10:50;100749.88;;;30.25;24.75
28428;BME280;15662;49.128;8.520;2022-07-15T13:13:21;100745.94;;;30.27;24.52
28428;BME280;15662;49.128;8.520;2022-07-15T13:15:51;100743.22;;;30.27;25.04
28428;BME280;15662;49.128;8.520;2022-07-15T13:18:20;100743.59;;;30.32;24.46
28428;BME280;15662;49.128;8.520;2022-07-15T13:20:48;100739.16;;;30.31;24.95
28428;BME280;15662;49.128;8.520;2022-07-15T13:23:16;100742.91;;;30.30;24.78
28428;BME280;15662;49.128;8.520;2022-07-15T13:25:44;100734.16;;;30.27;24.86
28428;BME280;15662;49.128;8.520;2022-07-15T13:28:13;100741.88;;;30.31;24.46
28428;BME280;15662;49.128;8.520;2022-07-15T13:30:41;100747.53;;;30.30;24.79
28428;BME280;15662;49.128;8.520;2022-07-15T13:33:10;100741.34;;;30.28;24.53
28428;BME280;15662;49.128;8.520;2022-07-15T13:35:39;100743.38;;;30.26;24.36
28428;BME280;15662;49.128;8.520;2022-07-15T13:38:07;100745.25;;;30.25;24.42
28428;BME280;15662;49.128;8.520;2022-07-15T13:40:35;100744.91;;;30.28;24.74
28428;BME280;15662;49.128;8.520;2022-07-15T13:43:03;100723.00;;;30.20;24.35
28428;BME280;15662;49.128;8.520;2022-07-15T13:45:31;100733.13;;;30.28;24.39
28428;BME280;15662;49.128;8.520;2022-07-15T13:48:00;100731.25;;;30.28;24.59
28428;BME280;15662;49.128;8.520;2022-07-15T13:50:28;100731.59;;;30.25;24.61
28428;BME280;15662;49.128;8.520;2022-07-15T13:53:15;100722.84;;;30.22;24.78
28428;BME280;15662;49.128;8.520;2022-07-15T13:55:44;100737.91;;;30.26;25.05
28428;BME280;15662;49.128;8.520;2022-07-15T13:58:12;100732.44;;;30.26;24.89
28428;BME280;15662;49.128;8.520;2022-07-15T14:00:40;100739.84;;;30.33;24.42
28428;BME280;15662;49.128;8.520;2022-07-15T14:03:09;100735.94;;;30.36;24.58
28428;BME280;15662;49.128;8.520;2022-07-15T14:05:38;100733.91;;;30.38;24.27
28428;BME280;15662;49.128;8.520;2022-07-15T14:08:06;100741.97;;;30.40;24.73